sensor_id;sensor_type;location;lat;lon;timestamp;pressure;altitude;pressure_sealevel;temperature;humidity
27210;BME280;14721;42.668;23.386;2024-02-21T00:01:38;95982.94;;;6.36;96.07
27210;BME280;14721;42.668;23.386;2024-02-21T00:04:04;95957.63;;;6.10;95.92
27210;BME280;14721;42.668;23.386;2024-02-21T00:06:58;95939.63;;;5.98;96.38
27210;BME280;14721;42.668;23.386;2024-02-21T00:09:27;95948.69;;;5.94;96.70
27210;BME280;14721;42.668;23.386;2024-02-21T00:11:57;95935.41;;;5.94;95.74
27210;BME280;14721;42.668;23.386;2024-02-21T00:14:30;95949.88;;;6.06;95.69
27210;BME280;14721;42.668;23.386;2024-02-21T00:17:01;95961.38;;;6.06;95.68
27210;BME280;14721;42.668;23.386;2024-02-21T00:19:34;95933.03;;;5.88;96.21
27210;BME280;14721;42.668;23.386;2024-02-21T00:22:00;95946.59;;;5.82;96.88
27210;BME280;14721;42.668;23.386;2024-02-21T00:24:26;95950.19;;;6.00;96.87
27210;BME280;14721;42.668;23.386;2024-02-21T00:26:51;95968.97;;;6.14;96.02
27210;BME280;14721;42.668;23.386;2024-02-21T00:29:39;95953.03;;;5.95;96.04
27210;BME280;14721;42.668;23.386;2024-02-21T00:32:05;95963.66;;;5.95;96.58
27210;BME280;14721;42.668;23.386;2024-02-21T00:34:57;95977.06;;;5.92;97.06
27210;BME280;14721;42.668;23.386;2024-02-21T00:37:26;95948.75;;;5.93;97.56
27210;BME280;14721;42.668;23.386;2024-02-21T00:39:56;95949.16;;;6.02;97.54
27210;BME280;14721;42.668;23.386;2024-02-21T00:42:24;95920.78;;;5.86;97.00
27210;BME280;14721;42.668;23.386;2024-02-21T00:44:54;95929.47;;;5.89;96.10
27210;BME280;14721;42.668;23.386;2024-02-21T00:47:21;95959.06;;;5.99;96.97
27210;BME280;14721;42.668;23.386;2024-02-21T00:49:49;95938.22;;;5.91;97.30
27210;BME280;14721;42.668;23.386;2024-02-21T00:52:15;95929.38;;;5.91;97.77
27210;BME280;14721;42.668;23.386;2024-02-21T00:54:41;95947.44;;;6.01;97.23
27210;BME280;14721;42.668;23.386;2024-02-21T00:57:19;95923.66;;;5.79;97.35
27210;BME280;14721;42.668;23.386;2024-02-21T00:59:51;95951.88;;;6.01;97.58
27210;BME280;14721;42.668;23.386;2024-02-21T01:02:34;95928.91;;;5.81;97.72
27210;BME280;14721;42.668;23.386;2024-02-21T01:05:00;95942.81;;;6.06;97.59
27210;BME280;14721;42.668;23.386;2024-02-21T01:07:28;95928.22;;;5.96;97.21
27210;BME280;14721;42.668;23.386;2024-02-21T01:10:07;95926.88;;;6.06;96.84
27210;BME280;14721;42.668;23.386;2024-02-21T01:12:41;95892.53;;;5.85;96.99
27210;BME280;14721;42.668;23.386;2024-02-21T01:15:09;95908.09;;;5.92;97.28
27210;BME280;14721;42.668;23.386;2024-02-21T01:17:48;95932.53;;;6.17;97.03
27210;BME280;14721;42.668;23.386;2024-02-21T01:20:20;95908.16;;;6.09;96.33
27210;BME280;14721;42.668;23.386;2024-02-21T01:22:46;95900.34;;;6.06;96.10
27210;BME280;14721;42.668;23.386;2024-02-21T01:25:11;95915.97;;;6.12;96.06
27210;BME280;14721;42.668;23.386;2024-02-21T01:27:40;95915.47;;;6.04;96.29
27210;BME280;14721;42.668;23.386;2024-02-21T01:30:15;95933.38;;;5.99;96.56
27210;BME280;14721;42.668;23.386;2024-02-21T01:32:41;95905.31;;;5.95;96.99
27210;BME280;14721;42.668;23.386;2024-02-21T01:35:07;95891.66;;;5.84;96.25
27210;BME280;14721;42.668;23.386;2024-02-21T01:37:33;95920.19;;;5.98;96.45
27210;BME280;14721;42.668;23.386;2024-02-21T01:39:58;95893.13;;;5.91;96.48
27210;BME280;14721;42.668;23.386;2024-02-21T01:42:24;95883.66;;;5.86;96.97
27210;BME280;14721;42.668;23.386;2024-02-21T01:44:49;95918.72;;;6.11;97.13
27210;BME280;14721;42.668;23.386;2024-02-21T01:47:16;95887.53;;;5.97;97.08
27210;BME280;14721;42.668;23.386;2024-02-21T01:49:42;95875.69;;;6.04;96.84
27210;BME280;14721;42.668;23.386;2024-02-21T01:52:08;95906.22;;;6.13;96.97
27210;BME280;14721;42.668;23.386;2024-02-21T01:54:35;95873.09;;;6.03;96.95
27210;BME280;14721;42.668;23.386;2024-02-21T01:57:01;95901.75;;;6.32;96.66
27210;BME280;14721;42.668;23.386;2024-02-21T01:59:26;95883.69;;;6.21;95.50
27210;BME280;14721;42.668;23.386;2024-02-21T02:01:52;95891.59;;;6.23;95.31
27210;BME280;14721;42.668;23.386;2024-02-21T02:04:22;95911.66;;;6.28;95.11
27210;BME280;14721;42.668;23.386;2024-02-21T02:06:48;95885.63;;;6.18;94.73
27210;BME280;14721;42.668;23.386;2024-02-21T02:09:15;95887.38;;;6.00;94.75
27210;BME280;14721;42.668;23.386;2024-02-21T02:11:42;95901.34;;;6.22;95.04
27210;BME280;14721;42.668;23.386;2024-02-21T02:14:08;95884.50;;;6.05;94.80
27210;BME280;14721;42.668;23.386;2024-02-21T02:16:50;95880.03;;;6.05;94.73
27210;BME280;14721;42.668;23.386;2024-02-21T02:19:15;95910.97;;;6.06;94.92
27210;BME280;14721;42.668;23.386;2024-02-21T02:21:49;95897.13;;;6.18;94.15
27210;BME280;14721;42.668;23.386;2024-02-21T02:24:22;95894.31;;;6.21;93.86
27210;BME280;14721;42.668;23.386;2024-02-21T02:26:51;95900.53;;;6.20;93.65
27210;BME280;14721;42.668;23.386;2024-02-21T02:29:17;95865.81;;;5.89;93.86
27210;BME280;14721;42.668;23.386;2024-02-21T02:32:05;95901.06;;;6.10;94.11
27210;BME280;14721;42.668;23.386;2024-02-21T02:34:41;95893.59;;;6.18;94.48
27210;BME280;14721;42.668;23.386;2024-02-21T02:37:07;95892.06;;;6.31;94.04
27210;BME280;14721;42.668;23.386;2024-02-21T02:39:32;95892.13;;;6.29;93.60
27210;BME280;14721;42.668;23.386;2024-02-21T02:41:58;95845.31;;;5.93;93.37
27210;BME280;14721;42.668;23.386;2024-02-21T02:44:26;95876.13;;;5.95;93.85
27210;BME280;14721;42.668;23.386;2024-02-21T02:46:52;95868.59;;;6.05;93.72
27210;BME280;14721;42.668;23.386;2024-02-21T02:49:17;95896.31;;;6.16;93.90
27210;BME280;14721;42.668;23.386;2024-02-21T02:51:43;95875.59;;;6.06;93.70
27210;BME280;14721;42.668;23.386;2024-02-21T02:54:14;95891.97;;;6.15;93.52
27210;BME280;14721;42.668;23.386;2024-02-21T02:56:42;95867.56;;;6.07;93.82
27210;BME280;14721;42.668;23.386;2024-02-21T02:59:21;95873.59;;;6.11;93.51
27210;BME280;14721;42.668;23.386;2024-02-21T03:01:51;95881.28;;;6.17;93.38
27210;BME280;14721;42.668;23.386;2024-02-21T03:04:17;95904.13;;;6.38;92.62
27210;BME280;14721;42.668;23.386;2024-02-21T03:06:42;95866.50;;;6.11;92.63
27210;BME280;14721;42.668;23.386;2024-02-21T03:09:08;95901.53;;;6.36;92.94
27210;BME280;14721;42.668;23.386;2024-02-21T03:11:37;95893.66;;;6.35;93.82
27210;BME280;14721;42.668;23.386;2024-02-21T03:14:04;95906.09;;;6.51;93.43
27210;BME280;14721;42.668;23.386;2024-02-21T03:16:30;95884.06;;;6.49;92.57
27210;BME280;14721;42.668;23.386;2024-02-21T03:18:55;95901.22;;;6.42;92.50
27210;BME280;14721;42.668;23.386;2024-02-21T03:21:21;95909.97;;;6.44;92.99
27210;BME280;14721;42.668;23.386;2024-02-21T03:23:46;95887.13;;;6.23;93.12
27210;BME280;14721;42.668;23.386;2024-02-21T03:26:14;95915.03;;;6.32;93.57
27210;BME280;14721;42.668;23.386;2024-02-21T03:28:42;95912.16;;;6.36;93.83
27210;BME280;14721;42.668;23.386;2024-02-21T03:31:13;95884.00;;;6.15;93.38
27210;BME280;14721;42.668;23.386;2024-02-21T03:33:42;95895.75;;;6.10;93.58
27210;BME280;14721;42.668;23.386;2024-02-21T03:36:14;95913.25;;;6.14;93.56
27210;BME280;14721;42.668;23.386;2024-02-21T03:38:40;95903.78;;;6.08;93.79
27210;BME280;14721;42.668;23.386;2024-02-21T03:41:06;95884.72;;;6.00;94.09
27210;BME280;14721;42.668;23.386;2024-02-21T03:43:38;95907.88;;;6.15;94.20
27210;BME280;14721;42.668;23.386;2024-02-21T03:46:04;95901.41;;;6.02;94.14
27210;BME280;14721;42.668;23.386;2024-02-21T03:48:32;95929.03;;;6.17;93.81
27210;BME280;14721;42.668;23.386;2024-02-21T03:50:58;95902.06;;;6.07;94.20
27210;BME280;14721;42.668;23.386;2024-02-21T03:53:24;95928.88;;;6.20;94.54
27210;BME280;14721;42.668;23.386;2024-02-21T03:55:52;95939.28;;;6.24;94.22
27210;BME280;14721;42.668;23.386;2024-02-21T03:58:28;95929.00;;;6.35;93.51
27210;BME280;14721;42.668;23.386;2024-02-21T04:00:53;95898.00;;;6.00;93.77
27210;BME280;14721;42.668;23.386;2024-02-21T04:03:24;95924.56;;;6.17;93.76
27210;BME280;14721;42.668;23.386;2024-02-21T04:05:50;95922.78;;;6.18;93.94
27210;BME280;14721;42.668;23.386;2024-02-21T04:08:19;95930.53;;;6.22;94.09
27210;BME280;14721;42.668;23.386;2024-02-21T04:10:44;95910.69;;;6.12;94.12
27210;BME280;14721;42.668;23.386;2024-02-21T04:13:10;95887.16;;;5.86;94.41
27210;BME280;14721;42.668;23.386;2024-02-21T04:15:43;95900.28;;;5.89;94.39
27210;BME280;14721;42.668;23.386;2024-02-21T04:18:08;95902.22;;;5.86;94.93
27210;BME280;14721;42.668;23.386;2024-02-21T04:20:43;95886.38;;;5.84;95.21
27210;BME280;14721;42.668;23.386;2024-02-21T04:23:09;95916.75;;;6.14;94.91
27210;BME280;14721;42.668;23.386;2024-02-21T04:25:34;95917.63;;;6.15;94.35
27210;BME280;14721;42.668;23.386;2024-02-21T04:28:00;95921.16;;;6.15;94.34
27210;BME280;14721;42.668;23.386;2024-02-21T04:30:25;95918.63;;;6.12;94.33
27210;BME280;14721;42.668;23.386;2024-02-21T04:32:53;95912.03;;;6.02;94.16
27210;BME280;14721;42.668;23.386;2024-02-21T04:35:19;95914.47;;;6.07;94.37
27210;BME280;14721;42.668;23.386;2024-02-21T04:37:45;95909.28;;;6.04;94.05
27210;BME280;14721;42.668;23.386;2024-02-21T04:40:11;95892.63;;;6.02;93.24
27210;BME280;14721;42.668;23.386;2024-02-21T04:42:36;95910.25;;;6.03;93.54
27210;BME280;14721;42.668;23.386;2024-02-21T04:45:05;95915.31;;;5.89;93.86
27210;BME280;14721;42.668;23.386;2024-02-21T04:47:31;95924.06;;;5.91;94.01
27210;BME280;14721;42.668;23.386;2024-02-21T04:49:57;95903.16;;;5.85;94.45
27210;BME280;14721;42.668;23.386;2024-02-21T04:52:31;95900.66;;;6.00;93.55
27210;BME280;14721;42.668;23.386;2024-02-21T04:54:57;95889.69;;;5.89;93.69
27210;BME280;14721;42.668;23.386;2024-02-21T04:57:23;95928.53;;;6.09;93.82
27210;BME280;14721;42.668;23.386;2024-02-21T04:59:48;95922.63;;;6.02;93.54
27210;BME280;14721;42.668;23.386;2024-02-21T05:02:14;95932.19;;;6.06;93.52
27210;BME280;14721;42.668;23.386;2024-02-21T05:04:39;95924.94;;;6.10;93.95
27210;BME280;14721;42.668;23.386;2024-02-21T05:07:08;95926.09;;;6.23;93.87
27210;BME280;14721;42.668;23.386;2024-02-21T05:09:36;95923.47;;;6.40;93.97
27210;BME280;14721;42.668;23.386;2024-02-21T05:12:01;95914.22;;;6.30;92.88
27210;BME280;14721;42.668;23.386;2024-02-21T05:14:27;95931.19;;;6.44;92.40
27210;BME280;14721;42.668;23.386;2024-02-21T05:16:53;95918.44;;;6.34;91.96
27210;BME280;14721;42.668;23.386;2024-02-21T05:19:19;95916.00;;;6.29;92.04
27210;BME280;14721;42.668;23.386;2024-02-21T05:21:47;95913.44;;;6.28;91.98
27210;BME280;14721;42.668;23.386;2024-02-21T05:24:12;95901.84;;;6.12;92.51
27210;BME280;14721;42.668;23.386;2024-02-21T05:26:38;95918.78;;;6.09;93.66
27210;BME280;14721;42.668;23.386;2024-02-21T05:29:03;95940.72;;;5.94;94.91
27210;BME280;14721;42.668;23.386;2024-02-21T05:34:18;95912.13;;;5.62;97.70
27210;BME280;14721;42.668;23.386;2024-02-21T05:37:01;95897.34;;;5.38;98.55
27210;BME280;14721;42.668;23.386;2024-02-21T05:39:37;95912.91;;;5.45;98.90
27210;BME280;14721;42.668;23.386;2024-02-21T05:42:02;95933.47;;;5.59;99.40
27210;BME280;14721;42.668;23.386;2024-02-21T05:44:28;95936.72;;;5.65;99.36
27210;BME280;14721;42.668;23.386;2024-02-21T05:46:53;95936.81;;;5.82;100.00
27210;BME280;14721;42.668;23.386;2024-02-21T05:49:19;95936.19;;;5.96;99.85
27210;BME280;14721;42.668;23.386;2024-02-21T05:51:45;95937.28;;;5.92;99.10
27210;BME280;14721;42.668;23.386;2024-02-21T05:54:10;95963.78;;;5.92;98.74
27210;BME280;14721;42.668;23.386;2024-02-21T05:56:36;95940.28;;;5.85;99.21
27210;BME280;14721;42.668;23.386;2024-02-21T05:59:01;95932.09;;;5.89;98.50
27210;BME280;14721;42.668;23.386;2024-02-21T06:01:29;95957.19;;;6.01;98.67
27210;BME280;14721;42.668;23.386;2024-02-21T06:03:58;95945.53;;;6.05;98.28
27210;BME280;14721;42.668;23.386;2024-02-21T06:06:24;95961.63;;;6.19;98.66
27210;BME280;14721;42.668;23.386;2024-02-21T06:08:50;95960.78;;;6.18;98.12
27210;BME280;14721;42.668;23.386;2024-02-21T06:11:15;95958.97;;;6.19;98.26
27210;BME280;14721;42.668;23.386;2024-02-21T06:13:41;95961.56;;;6.20;98.41
27210;BME280;14721;42.668;23.386;2024-02-21T06:16:06;95980.06;;;6.40;98.07
27210;BME280;14721;42.668;23.386;2024-02-21T06:18:34;95964.00;;;6.43;97.82
27210;BME280;14721;42.668;23.386;2024-02-21T06:21:00;95969.81;;;6.51;97.07
27210;BME280;14721;42.668;23.386;2024-02-21T06:23:26;95980.34;;;6.53;96.75
27210;BME280;14721;42.668;23.386;2024-02-21T06:25:52;95965.34;;;6.52;97.24
27210;BME280;14721;42.668;23.386;2024-02-21T06:28:17;95984.09;;;6.84;96.75
27210;BME280;14721;42.668;23.386;2024-02-21T06:30:45;95980.91;;;6.95;95.37
27210;BME280;14721;42.668;23.386;2024-02-21T06:33:11;95964.06;;;6.60;94.38
27210;BME280;14721;42.668;23.386;2024-02-21T06:35:36;95973.66;;;6.63;94.88
27210;BME280;14721;42.668;23.386;2024-02-21T06:38:03;95997.56;;;6.63;94.89
27210;BME280;14721;42.668;23.386;2024-02-21T06:40:29;96000.94;;;6.66;94.66
27210;BME280;14721;42.668;23.386;2024-02-21T06:43:03;95975.84;;;6.36;95.37
27210;BME280;14721;42.668;23.386;2024-02-21T06:45:29;96005.16;;;6.52;95.58
27210;BME280;14721;42.668;23.386;2024-02-21T06:47:54;96004.81;;;6.41;96.09
27210;BME280;14721;42.668;23.386;2024-02-21T06:50:20;96008.81;;;6.68;96.10
27210;BME280;14721;42.668;23.386;2024-02-21T06:52:45;96014.53;;;6.77;95.49
27210;BME280;14721;42.668;23.386;2024-02-21T06:55:14;96016.94;;;7.00;94.99
27210;BME280;14721;42.668;23.386;2024-02-21T06:57:39;95995.66;;;7.00;93.80
27210;BME280;14721;42.668;23.386;2024-02-21T07:00:05;96015.69;;;7.24;93.36
27210;BME280;14721;42.668;23.386;2024-02-21T07:02:33;96008.91;;;7.36;92.53
27210;BME280;14721;42.668;23.386;2024-02-21T07:04:59;96006.56;;;7.64;92.38
27210;BME280;14721;42.668;23.386;2024-02-21T07:07:25;96010.81;;;7.84;90.96
27210;BME280;14721;42.668;23.386;2024-02-21T07:09:50;96014.34;;;7.84;89.36
27210;BME280;14721;42.668;23.386;2024-02-21T07:12:16;96000.41;;;7.79;88.83
27210;BME280;14721;42.668;23.386;2024-02-21T07:14:42;96000.16;;;7.84;88.17
27210;BME280;14721;42.668;23.386;2024-02-21T07:17:08;96012.31;;;7.89;87.65
27210;BME280;14721;42.668;23.386;2024-02-21T07:19:33;96005.56;;;7.82;87.13
27210;BME280;14721;42.668;23.386;2024-02-21T07:22:00;96012.72;;;7.82;87.79
27210;BME280;14721;42.668;23.386;2024-02-21T07:24:26;96018.34;;;7.76;87.45
27210;BME280;14721;42.668;23.386;2024-02-21T07:26:51;96016.44;;;7.78;87.00
27210;BME280;14721;42.668;23.386;2024-02-21T07:29:17;96017.81;;;7.69;86.88
27210;BME280;14721;42.668;23.386;2024-02-21T07:31:43;95999.09;;;7.70;87.57
27210;BME280;14721;42.668;23.386;2024-02-21T07:34:09;96001.19;;;7.81;87.42
27210;BME280;14721;42.668;23.386;2024-02-21T07:36:34;96023.47;;;7.96;86.49
27210;BME280;14721;42.668;23.386;2024-02-21T07:39:00;96023.06;;;8.03;86.17
27210;BME280;14721;42.668;23.386;2024-02-21T07:41:26;96031.59;;;8.10;85.70
27210;BME280;14721;42.668;23.386;2024-02-21T07:43:52;96008.53;;;8.26;85.69
27210;BME280;14721;42.668;23.386;2024-02-21T07:46:18;96008.50;;;8.58;84.31
27210;BME280;14721;42.668;23.386;2024-02-21T07:48:45;96011.34;;;8.55;82.61
27210;BME280;14721;42.668;23.386;2024-02-21T07:51:12;96014.25;;;8.66;82.06
27210;BME280;14721;42.668;23.386;2024-02-21T07:53:41;95997.19;;;8.70;81.52
27210;BME280;14721;42.668;23.386;2024-02-21T07:56:13;95997.59;;;8.63;81.09
27210;BME280;14721;42.668;23.386;2024-02-21T07:58:40;96018.41;;;8.72;80.81
27210;BME280;14721;42.668;23.386;2024-02-21T08:01:06;95990.81;;;8.73;80.41
27210;BME280;14721;42.668;23.386;2024-02-21T08:03:31;95991.06;;;8.84;78.69
27210;BME280;14721;42.668;23.386;2024-02-21T08:05:56;95989.41;;;8.97;79.18
27210;BME280;14721;42.668;23.386;2024-02-21T08:08:22;96006.84;;;9.02;78.63
27210;BME280;14721;42.668;23.386;2024-02-21T08:10:48;95994.13;;;9.07;77.25
27210;BME280;14721;42.668;23.386;2024-02-21T08:13:14;96012.69;;;9.24;76.46
27210;BME280;14721;42.668;23.386;2024-02-21T08:15:39;95994.72;;;9.42;75.82
27210;BME280;14721;42.668;23.386;2024-02-21T08:18:07;96000.47;;;9.50;75.50
27210;BME280;14721;42.668;23.386;2024-02-21T08:20:33;95983.75;;;9.76;75.28
27210;BME280;14721;42.668;23.386;2024-02-21T08:22:58;96002.25;;;10.09;73.95
27210;BME280;14721;42.668;23.386;2024-02-21T08:25:24;95985.88;;;9.99;72.87
27210;BME280;14721;42.668;23.386;2024-02-21T08:27:57;95991.97;;;9.87;73.15
27210;BME280;14721;42.668;23.386;2024-02-21T08:30:23;95994.72;;;9.86;73.02
27210;BME280;14721;42.668;23.386;2024-02-21T08:32:51;95992.63;;;9.77;73.44
27210;BME280;14721;42.668;23.386;2024-02-21T08:35:17;96003.38;;;9.75;73.51
27210;BME280;14721;42.668;23.386;2024-02-21T08:37:47;96000.66;;;9.91;73.98
27210;BME280;14721;42.668;23.386;2024-02-21T08:40:21;96008.56;;;9.92;73.58
27210;BME280;14721;42.668;23.386;2024-02-21T08:42:54;95977.88;;;9.99;72.51
27210;BME280;14721;42.668;23.386;2024-02-21T08:45:19;95969.25;;;10.10;73.00
27210;BME280;14721;42.668;23.386;2024-02-21T08:47:45;95931.94;;;10.08;71.04
27210;BME280;14721;42.668;23.386;2024-02-21T08:50:14;95991.66;;;10.35;70.04
27210;BME280;14721;42.668;23.386;2024-02-21T08:52:39;95991.34;;;10.26;69.63
27210;BME280;14721;42.668;23.386;2024-02-21T08:55:06;95956.81;;;9.95;69.57
27210;BME280;14721;42.668;23.386;2024-02-21T08:57:32;95982.97;;;10.32;68.96
27210;BME280;14721;42.668;23.386;2024-02-21T09:00:04;95998.22;;;10.58;68.13
27210;BME280;14721;42.668;23.386;2024-02-21T09:02:55;95968.41;;;10.64;67.19
27210;BME280;14721;42.668;23.386;2024-02-21T09:05:26;96001.28;;;10.52;67.54
27210;BME280;14721;42.668;23.386;2024-02-21T09:07:51;95939.34;;;10.03;67.58
27210;BME280;14721;42.668;23.386;2024-02-21T09:10:21;95960.06;;;10.14;68.35
27210;BME280;14721;42.668;23.386;2024-02-21T09:12:47;95958.22;;;10.00;68.18
27210;BME280;14721;42.668;23.386;2024-02-21T09:15:13;95966.44;;;9.83;68.54
27210;BME280;14721;42.668;23.386;2024-02-21T09:17:38;95990.31;;;10.14;68.74
27210;BME280;14721;42.668;23.386;2024-02-21T09:20:05;95980.75;;;10.24;68.29
27210;BME280;14721;42.668;23.386;2024-02-21T09:22:31;95968.00;;;10.29;66.84
27210;BME280;14721;42.668;23.386;2024-02-21T09:25:00;95988.28;;;10.32;67.93
27210;BME280;14721;42.668;23.386;2024-02-21T09:27:28;95977.31;;;10.36;68.01
27210;BME280;14721;42.668;23.386;2024-02-21T09:29:56;95980.56;;;10.41;67.71
27210;BME280;14721;42.668;23.386;2024-02-21T09:32:22;95951.25;;;10.54;67.54
27210;BME280;14721;42.668;23.386;2024-02-21T09:34:53;96002.59;;;10.99;65.96
27210;BME280;14721;42.668;23.386;2024-02-21T09:37:19;95978.91;;;10.67;65.33
27210;BME280;14721;42.668;23.386;2024-02-21T09:39:47;95979.13;;;10.50;65.32
27210;BME280;14721;42.668;23.386;2024-02-21T09:42:14;95961.88;;;10.27;65.95
27210;BME280;14721;42.668;23.386;2024-02-21T09:44:45;95998.09;;;10.59;65.98
27210;BME280;14721;42.668;23.386;2024-02-21T09:47:40;95978.16;;;10.65;65.73
27210;BME280;14721;42.668;23.386;2024-02-21T09:50:19;96005.97;;;10.89;65.09
27210;BME280;14721;42.668;23.386;2024-02-21T09:53:12;95941.13;;;10.45;65.41
27210;BME280;14721;42.668;23.386;2024-02-21T09:55:39;95998.41;;;10.95;65.93
27210;BME280;14721;42.668;23.386;2024-02-21T09:58:07;96001.63;;;11.00;64.99
27210;BME280;14721;42.668;23.386;2024-02-21T10:00:35;96002.00;;;11.08;64.32
27210;BME280;14721;42.668;23.386;2024-02-21T10:03:04;95998.34;;;11.09;64.16
27210;BME280;14721;42.668;23.386;2024-02-21T10:05:36;95990.69;;;11.17;64.79
27210;BME280;14721;42.668;23.386;2024-02-21T10:08:03;95993.75;;;11.25;63.94
27210;BME280;14721;42.668;23.386;2024-02-21T10:10:42;95997.94;;;11.15;64.46
27210;BME280;14721;42.668;23.386;2024-02-21T10:13:11;95971.91;;;11.05;62.76
27210;BME280;14721;42.668;23.386;2024-02-21T10:15:43;95987.41;;;11.26;61.56
27210;BME280;14721;42.668;23.386;2024-02-21T10:18:21;95971.50;;;11.11;62.02
27210;BME280;14721;42.668;23.386;2024-02-21T10:21:00;95970.91;;;10.93;61.62
27210;BME280;14721;42.668;23.386;2024-02-21T10:23:27;95979.84;;;11.06;61.22
27210;BME280;14721;42.668;23.386;2024-02-21T10:25:53;95960.59;;;11.01;61.08
27210;BME280;14721;42.668;23.386;2024-02-21T10:28:21;95957.09;;;11.13;61.60
27210;BME280;14721;42.668;23.386;2024-02-21T10:30:50;95964.41;;;11.24;61.75
27210;BME280;14721;42.668;23.386;2024-02-21T10:33:19;95950.88;;;11.13;60.82
27210;BME280;14721;42.668;23.386;2024-02-21T10:35:50;95955.41;;;11.25;59.55
27210;BME280;14721;42.668;23.386;2024-02-21T10:38:16;95952.75;;;11.25;58.92
27210;BME280;14721;42.668;23.386;2024-02-21T10:40:46;95936.53;;;11.14;58.63
27210;BME280;14721;42.668;23.386;2024-02-21T10:43:14;95912.97;;;11.06;59.08
27210;BME280;14721;42.668;23.386;2024-02-21T10:45:42;95922.66;;;11.21;58.91
27210;BME280;14721;42.668;23.386;2024-02-21T10:48:12;95901.72;;;11.53;57.68
27210;BME280;14721;42.668;23.386;2024-02-21T10:59:17;95897.69;;;11.60;58.02
27210;BME280;14721;42.668;23.386;2024-02-21T11:01:43;95893.38;;;11.58;57.91
27210;BME280;14721;42.668;23.386;2024-02-21T11:04:10;95891.28;;;11.63;57.19
27210;BME280;14721;42.668;23.386;2024-02-21T11:06:38;95868.56;;;11.56;57.33
27210;BME280;14721;42.668;23.386;2024-02-21T11:09:08;95872.81;;;11.45;57.93
27210;BME280;14721;42.668;23.386;2024-02-21T11:14:19;95879.25;;;11.43;59.03
27210;BME280;14721;42.668;23.386;2024-02-21T11:16:45;95875.09;;;11.52;59.12
27210;BME280;14721;42.668;23.386;2024-02-21T11:19:20;95881.75;;;11.71;58.12
27210;BME280;14721;42.668;23.386;2024-02-21T11:21:50;95869.03;;;11.75;57.35
27210;BME280;14721;42.668;23.386;2024-02-21T11:24:29;95868.28;;;11.85;54.55
27210;BME280;14721;42.668;23.386;2024-02-21T11:27:11;95882.38;;;12.00;53.85
27210;BME280;14721;42.668;23.386;2024-02-21T11:29:43;95855.22;;;11.81;52.28
27210;BME280;14721;42.668;23.386;2024-02-21T11:32:15;95879.97;;;11.84;52.28
27210;BME280;14721;42.668;23.386;2024-02-21T11:34:41;95874.94;;;11.80;52.40
27210;BME280;14721;42.668;23.386;2024-02-21T11:37:15;95854.16;;;11.71;51.86
27210;BME280;14721;42.668;23.386;2024-02-21T11:39:41;95865.06;;;11.80;51.72
27210;BME280;14721;42.668;23.386;2024-02-21T11:42:08;95841.81;;;11.93;51.12
27210;BME280;14721;42.668;23.386;2024-02-21T11:44:35;95855.94;;;12.08;50.45
27210;BME280;14721;42.668;23.386;2024-02-21T11:47:06;95849.47;;;12.10;51.07
27210;BME280;14721;42.668;23.386;2024-02-21T11:49:36;95821.00;;;11.97;51.67
27210;BME280;14721;42.668;23.386;2024-02-21T11:52:03;95845.97;;;12.10;51.35
27210;BME280;14721;42.668;23.386;2024-02-21T11:54:33;95830.22;;;12.05;50.98
27210;BME280;14721;42.668;23.386;2024-02-21T11:57:00;95840.22;;;12.27;51.67
27210;BME280;14721;42.668;23.386;2024-02-21T11:59:26;95844.88;;;12.48;51.27
27210;BME280;14721;42.668;23.386;2024-02-21T12:01:52;95817.91;;;12.39;50.74
27210;BME280;14721;42.668;23.386;2024-02-21T12:04:21;95848.56;;;12.35;50.60
27210;BME280;14721;42.668;23.386;2024-02-21T12:06:49;95827.84;;;12.13;51.16
27210;BME280;14721;42.668;23.386;2024-02-21T12:09:15;95853.34;;;12.19;51.61
27210;BME280;14721;42.668;23.386;2024-02-21T12:11:44;95840.50;;;12.11;51.40
27210;BME280;14721;42.668;23.386;2024-02-21T12:14:10;95845.97;;;12.10;51.72
27210;BME280;14721;42.668;23.386;2024-02-21T12:16:36;95824.56;;;11.85;51.91
27210;BME280;14721;42.668;23.386;2024-02-21T12:19:02;95822.53;;;11.88;52.00
27210;BME280;14721;42.668;23.386;2024-02-21T12:21:33;95831.34;;;11.78;52.04
27210;BME280;14721;42.668;23.386;2024-02-21T12:24:15;95820.28;;;11.57;52.66
27210;BME280;14721;42.668;23.386;2024-02-21T12:26:41;95826.69;;;11.55;53.60
27210;BME280;14721;42.668;23.386;2024-02-21T12:29:07;95816.94;;;11.41;54.46
27210;BME280;14721;42.668;23.386;2024-02-21T12:31:38;95820.94;;;11.35;54.94
27210;BME280;14721;42.668;23.386;2024-02-21T12:34:04;95827.13;;;11.36;54.88
27210;BME280;14721;42.668;23.386;2024-02-21T12:36:31;95829.91;;;11.22;55.13
27210;BME280;14721;42.668;23.386;2024-02-21T12:38:56;95822.94;;;11.32;54.92
27210;BME280;14721;42.668;23.386;2024-02-21T12:41:22;95816.44;;;11.36;54.18
27210;BME280;14721;42.668;23.386;2024-02-21T12:43:48;95785.28;;;11.10;54.13
27210;BME280;14721;42.668;23.386;2024-02-21T12:46:18;95819.06;;;11.11;55.01
27210;BME280;14721;42.668;23.386;2024-02-21T12:48:43;95819.38;;;11.06;55.32
27210;BME280;14721;42.668;23.386;2024-02-21T12:51:24;95798.09;;;10.92;54.52
27210;BME280;14721;42.668;23.386;2024-02-21T12:53:49;95808.38;;;10.98;53.87
27210;BME280;14721;42.668;23.386;2024-02-21T12:56:17;95813.97;;;11.20;54.32
27210;BME280;14721;42.668;23.386;2024-02-21T13:01:43;95767.91;;;10.78;54.24
27210;BME280;14721;42.668;23.386;2024-02-21T13:04:19;95790.91;;;10.80;55.36
27210;BME280;14721;42.668;23.386;2024-02-21T13:06:48;95812.50;;;10.90;56.33
27210;BME280;14721;42.668;23.386;2024-02-21T13:09:14;95804.59;;;10.88;57.36
27210;BME280;14721;42.668;23.386;2024-02-21T13:11:40;95773.25;;;10.78;58.62
27210;BME280;14721;42.668;23.386;2024-02-21T13:14:07;95782.25;;;10.89;59.55
27210;BME280;14721;42.668;23.386;2024-02-21T13:16:34;95767.16;;;10.76;59.21
27210;BME280;14721;42.668;23.386;2024-02-21T13:21:49;95773.47;;;10.87;59.10
27210;BME280;14721;42.668;23.386;2024-02-21T13:24:24;95753.94;;;10.48;58.66